createdAt,value
2018-05-17T00:01:01.387Z,4.00
2018-05-17T00:03:29.341Z,3.87
2018-05-17T00:05:57.938Z,4.00
2018-05-17T00:08:28.148Z,3.53
2018-05-17T00:10:58.335Z,4.33
2018-05-17T00:13:30.084Z,4.17
2018-05-17T00:15:58.723Z,4.20
2018-05-17T00:18:26.589Z,4.80
2018-05-17T00:20:54.457Z,4.90
2018-05-17T00:23:22.323Z,4.30
2018-05-17T00:25:50.397Z,4.87
2018-05-17T00:28:18.260Z,5.33
2018-05-17T00:30:46.127Z,3.40
2018-05-17T00:33:13.996Z,6.30
2018-05-17T00:35:41.873Z,4.20
2018-05-17T00:38:09.829Z,4.87
2018-05-17T00:40:37.704Z,4.80
2018-05-17T00:43:05.564Z,5.00
2018-05-17T00:45:33.429Z,5.30
2018-05-17T00:48:01.296Z,4.40
2018-05-17T00:50:29.090Z,5.30
2018-05-17T00:53:09.010Z,4.70
2018-05-17T00:55:36.876Z,4.50
2018-05-17T00:58:04.743Z,4.20
2018-05-17T01:00:32.536Z,4.80
2018-05-17T01:03:01.193Z,5.10
2018-05-17T01:05:29.059Z,3.97
2018-05-17T01:07:56.925Z,5.57
2018-05-17T01:10:24.792Z,4.17
2018-05-17T01:12:52.659Z,5.00
2018-05-17T01:15:20.525Z,4.97
2018-05-17T01:17:48.391Z,4.37
2018-05-17T01:20:16.259Z,3.90
2018-05-17T01:22:44.128Z,4.13
2018-05-17T01:25:11.992Z,4.83
2018-05-17T01:27:39.858Z,4.13
2018-05-17T01:30:07.653Z,4.30
2018-05-17T01:32:35.588Z,5.13
2018-05-17T01:35:03.662Z,4.80
2018-05-17T01:37:44.227Z,5.73
2018-05-17T01:40:12.094Z,4.77
2018-05-17T01:42:39.884Z,5.80
2018-05-17T01:45:07.827Z,5.50
2018-05-17T01:47:35.693Z,6.67
2018-05-17T01:50:03.663Z,6.33
2018-05-17T01:52:31.528Z,6.00
2018-05-17T01:54:59.395Z,5.07
2018-05-17T01:57:27.262Z,6.83
2018-05-17T01:59:55.128Z,5.57
2018-05-17T02:02:23.048Z,6.07
2018-05-17T02:04:51.681Z,5.27
2018-05-17T02:07:19.547Z,6.40
2018-05-17T02:09:47.415Z,6.17
2018-05-17T02:12:15.281Z,6.37
2018-05-17T02:14:43.147Z,5.63
2018-05-17T02:17:11.015Z,4.97
2018-05-17T02:19:38.844Z,5.30
2018-05-17T02:22:06.848Z,6.33
2018-05-17T02:24:34.819Z,5.50
2018-05-17T02:27:02.685Z,6.23
2018-05-17T02:29:30.553Z,5.53
2018-05-17T02:31:58.418Z,5.27
2018-05-17T02:34:26.208Z,6.10
2018-05-17T02:36:53.973Z,6.23
2018-05-17T02:39:21.919Z,5.67
2018-05-17T02:41:49.782Z,6.23
2018-05-17T02:44:17.547Z,5.33
2018-05-17T02:46:45.413Z,5.83
2018-05-17T02:49:13.321Z,5.10
2018-05-17T02:51:41.964Z,5.20
2018-05-17T02:54:10.651Z,7.13
2018-05-17T02:56:38.517Z,6.50
2018-05-17T02:59:06.384Z,7.10
2018-05-17T03:01:34.250Z,5.70
2018-05-17T03:04:02.116Z,5.80
2018-05-17T03:06:29.992Z,5.50
2018-05-17T03:08:57.849Z,6.23
2018-05-17T03:11:25.717Z,5.80
2018-05-17T03:13:53.584Z,6.70
2018-05-17T03:16:21.453Z,6.83
2018-05-17T03:18:49.240Z,5.20
2018-05-17T03:21:17.009Z,6.93
2018-05-17T03:23:44.769Z,7.20
2018-05-17T03:26:12.609Z,6.80
2018-05-17T03:28:40.401Z,6.67
2018-05-17T03:31:08.186Z,6.90
2018-05-17T03:33:36.750Z,7.10
2018-05-17T03:36:04.689Z,7.20
2018-05-17T03:38:32.481Z,6.90
2018-05-17T03:41:00.423Z,6.67
2018-05-17T03:43:28.293Z,6.13
2018-05-17T03:45:56.082Z,8.30
2018-05-17T03:48:24.025Z,7.03
2018-05-17T03:50:52.633Z,8.63
2018-05-17T03:53:20.575Z,7.90
2018-05-17T03:55:48.440Z,7.03
2018-05-17T03:58:16.232Z,7.80
2018-05-17T04:00:55.976Z,7.03
2018-05-17T04:03:35.591Z,8.10
2018-05-17T04:06:15.318Z,7.50
2018-05-17T04:08:43.928Z,7.40
2018-05-17T04:11:11.890Z,7.27
2018-05-17T04:13:39.757Z,7.03
2018-05-17T04:16:07.623Z,8.40
2018-05-17T04:18:35.490Z,5.77
2018-05-17T04:21:03.280Z,6.13
2018-05-17T04:23:31.223Z,6.70
2018-05-17T04:25:59.090Z,6.97
2018-05-17T04:28:26.852Z,5.90
2018-05-17T04:30:54.816Z,5.80
2018-05-17T04:33:22.683Z,5.83
2018-05-17T04:35:50.555Z,6.23
2018-05-17T04:38:18.422Z,5.73
2018-05-17T04:40:46.289Z,5.60
2018-05-17T04:43:14.081Z,6.00
2018-05-17T04:45:42.022Z,6.40
2018-05-17T04:48:09.991Z,7.13
2018-05-17T04:50:37.928Z,6.70
2018-05-17T04:53:05.826Z,6.27
2018-05-17T04:55:33.694Z,6.10
2018-05-17T04:58:01.560Z,6.80
2018-05-17T05:00:29.938Z,5.83
2018-05-17T05:02:57.810Z,6.00
2018-05-17T05:05:26.490Z,5.37
2018-05-17T05:07:54.253Z,5.70
2018-05-17T05:10:22.120Z,5.73
2018-05-17T05:12:49.987Z,6.67
2018-05-17T05:15:17.854Z,5.80
2018-05-17T05:17:45.721Z,5.70
2018-05-17T05:20:13.690Z,6.00
2018-05-17T05:22:41.485Z,5.30
2018-05-17T05:25:10.233Z,5.73
2018-05-17T05:27:38.827Z,5.60
2018-05-17T05:30:06.692Z,4.93
2018-05-17T05:32:34.558Z,5.67
2018-05-17T05:35:02.428Z,4.97
2018-05-17T05:37:30.328Z,5.77
2018-05-17T05:39:58.977Z,4.90
2018-05-17T05:42:26.946Z,5.23
2018-05-17T05:44:54.915Z,4.23
2018-05-17T05:47:22.781Z,4.83
2018-05-17T05:49:50.572Z,3.83
2018-05-17T05:52:18.515Z,4.33
2018-05-17T05:54:46.384Z,4.23
2018-05-17T05:57:14.350Z,4.03
2018-05-17T05:59:42.180Z,4.17
2018-05-17T06:02:10.083Z,4.00
2018-05-17T06:04:37.950Z,3.93
2018-05-17T06:07:05.817Z,3.67
2018-05-17T06:09:33.607Z,3.77
2018-05-17T06:12:02.267Z,4.10
2018-05-17T06:14:30.133Z,3.77
2018-05-17T06:16:57.999Z,5.07
2018-05-17T06:19:25.866Z,4.33
2018-05-17T06:21:53.736Z,4.27
2018-05-17T06:24:21.599Z,4.20
2018-05-17T06:26:49.466Z,4.90
2018-05-17T06:29:17.333Z,5.00
2018-05-17T06:31:45.198Z,5.23
2018-05-17T06:34:13.066Z,4.57
2018-05-17T06:36:40.932Z,5.50
2018-05-17T06:39:08.798Z,5.03
2018-05-17T06:41:36.677Z,5.57
2018-05-17T06:44:04.566Z,4.90
2018-05-17T06:46:33.222Z,5.70
2018-05-17T06:49:01.084Z,5.50
2018-05-17T06:51:28.951Z,5.97
2018-05-17T06:53:56.817Z,6.07
2018-05-17T06:56:24.683Z,5.23
2018-05-17T06:58:52.551Z,5.93
2018-05-17T07:01:20.417Z,5.30
2018-05-17T07:03:48.208Z,5.63
2018-05-17T07:06:16.150Z,4.97
2018-05-17T07:08:44.017Z,5.30
2018-05-17T07:11:11.883Z,5.47
2018-05-17T07:13:39.749Z,5.23
2018-05-17T07:16:07.541Z,5.40
2018-05-17T07:18:35.662Z,5.13
2018-05-17T07:21:04.167Z,5.90
2018-05-17T07:23:31.960Z,5.87
2018-05-17T07:25:59.799Z,5.63
2018-05-17T07:28:27.665Z,5.27
2018-05-17T07:30:55.533Z,4.97
2018-05-17T07:33:23.280Z,5.70
2018-05-17T07:35:51.166Z,4.70
2018-05-17T07:38:19.132Z,5.07
2018-05-17T07:40:46.999Z,4.93
2018-05-17T07:43:14.865Z,5.83
2018-05-17T07:45:42.733Z,5.50
2018-05-17T07:48:10.598Z,5.60
2018-05-17T07:50:38.464Z,5.50
2018-05-17T07:53:06.257Z,4.60
2018-05-17T07:55:34.242Z,4.40
2018-05-17T07:58:02.808Z,5.83
2018-05-17T08:00:30.808Z,4.90
2018-05-17T08:02:59.435Z,5.30
2018-05-17T08:05:27.230Z,4.73
2018-05-17T08:07:55.066Z,4.97
2018-05-17T08:10:22.933Z,5.00
2018-05-17T08:12:50.933Z,4.80
2018-05-17T08:15:18.796Z,6.00
2018-05-17T08:17:46.560Z,5.03
2018-05-17T08:20:14.399Z,7.30
2018-05-17T08:22:42.272Z,19.23
2018-05-17T08:25:10.364Z,6.80
2018-05-17T08:27:38.203Z,6.70
2018-05-17T08:30:06.101Z,4.63
2018-05-17T08:32:33.895Z,6.20
2018-05-17T08:35:01.666Z,7.00
2018-05-17T08:37:29.413Z,5.13
2018-05-17T08:39:58.185Z,6.37
2018-05-17T08:42:26.118Z,6.53
2018-05-17T08:44:53.955Z,6.50
2018-05-17T08:47:21.708Z,5.10
2018-05-17T08:49:49.452Z,4.87
2018-05-17T08:52:18.014Z,5.73
2018-05-17T08:54:45.854Z,6.60
2018-05-17T08:57:13.609Z,6.10
2018-05-17T08:59:41.516Z,5.70
2018-05-17T09:02:09.336Z,6.10
2018-05-17T09:04:37.094Z,7.43
2018-05-17T09:07:04.929Z,6.23
2018-05-17T09:09:33.441Z,6.18
2018-05-17T09:12:01.195Z,6.57
2018-05-17T09:14:28.949Z,6.43
2018-05-17T09:16:57.524Z,7.63
2018-05-17T09:19:26.073Z,8.00
2018-05-17T09:21:53.931Z,8.00
2018-05-17T09:24:22.109Z,6.77
2018-05-17T09:26:49.858Z,7.10
2018-05-17T09:29:17.725Z,6.00
2018-05-17T09:31:45.500Z,7.17
2018-05-17T09:34:13.366Z,7.50
2018-05-17T09:36:41.117Z,8.40
2018-05-17T09:39:08.869Z,7.85
2018-05-17T09:41:36.625Z,7.10
2018-05-17T09:44:04.429Z,7.73
2018-05-17T09:46:32.176Z,8.03
2018-05-17T09:48:59.933Z,6.97
2018-05-17T09:51:27.677Z,6.53
2018-05-17T09:53:55.429Z,6.50
2018-05-17T09:56:23.190Z,6.23
2018-05-17T09:58:51.704Z,6.97
2018-05-17T10:01:19.453Z,5.97
2018-05-17T10:03:47.210Z,8.43
2018-05-17T10:06:15.988Z,6.70
2018-05-17T10:08:44.521Z,8.47
2018-05-17T10:11:12.279Z,7.83
2018-05-17T10:13:40.054Z,7.10
2018-05-17T10:16:08.021Z,7.50
2018-05-17T10:18:35.772Z,7.37
2018-05-17T10:21:03.653Z,5.90
2018-05-17T10:23:31.516Z,5.23
2018-05-17T10:25:59.382Z,4.53
2018-05-17T10:28:27.253Z,5.60
2018-05-17T10:30:55.219Z,3.60
2018-05-17T10:33:23.186Z,4.67
2018-05-17T10:35:50.933Z,4.70
2018-05-17T10:38:18.869Z,4.67
2018-05-17T10:40:46.623Z,5.73
2018-05-17T10:43:15.139Z,4.87
2018-05-17T10:45:42.900Z,4.40
2018-05-17T10:48:10.660Z,4.60
2018-05-17T10:50:38.407Z,5.53
2018-05-17T10:53:07.051Z,5.03
2018-05-17T10:55:35.698Z,5.70
2018-05-17T10:58:03.624Z,5.90
2018-05-17T11:00:31.628Z,5.57
2018-05-17T11:02:59.532Z,4.70
2018-05-17T11:05:27.397Z,5.80
2018-05-17T11:07:55.367Z,4.03
2018-05-17T11:10:23.171Z,5.63
2018-05-17T11:12:51.733Z,5.70
2018-05-17T11:15:19.546Z,6.53
2018-05-17T11:17:47.265Z,6.30
2018-05-17T11:20:15.012Z,7.47
2018-05-17T11:22:42.821Z,6.07
2018-05-17T11:25:11.348Z,7.47
2018-05-17T11:27:39.100Z,6.30
2018-05-17T11:30:06.987Z,5.53
2018-05-17T11:32:34.780Z,5.90
2018-05-17T11:35:02.913Z,5.00
2018-05-17T11:37:30.757Z,6.00
2018-05-17T11:39:58.669Z,7.67
2018-05-17T11:42:26.441Z,6.20
2018-05-17T11:44:54.234Z,7.20
2018-05-17T11:47:22.748Z,5.70
2018-05-17T11:49:50.553Z,7.30
2018-05-17T11:52:18.346Z,6.30
2018-05-17T11:54:46.859Z,7.90
2018-05-17T11:57:14.746Z,6.23
2018-05-17T11:59:44.251Z,6.30
2018-05-17T12:02:13.288Z,7.10
2018-05-17T12:04:42.029Z,8.30
2018-05-17T12:07:10.061Z,7.73
2018-05-17T12:09:38.218Z,6.90
2018-05-17T12:12:07.366Z,7.83
2018-05-17T12:14:35.169Z,6.47
2018-05-17T12:17:03.105Z,5.80
2018-05-17T12:19:31.049Z,7.50
2018-05-17T12:21:59.302Z,5.83
2018-05-17T12:24:28.157Z,6.37
2018-05-17T12:26:55.972Z,7.17
2018-05-17T12:29:23.724Z,6.30
2018-05-17T12:31:51.559Z,5.70
2018-05-17T12:34:19.313Z,6.20
2018-05-17T12:36:47.242Z,6.17
2018-05-17T12:39:16.686Z,5.73
2018-05-17T12:41:45.125Z,4.93
2018-05-17T12:44:13.244Z,5.87
2018-05-17T12:46:41.006Z,4.57
2018-05-17T12:49:08.769Z,5.50
2018-05-17T12:51:37.101Z,5.13
2018-05-17T12:54:04.897Z,4.30
2018-05-17T12:56:32.644Z,4.57
2018-05-17T12:59:00.405Z,5.40
2018-05-17T13:01:28.164Z,5.63
2018-05-17T13:03:55.968Z,4.00
2018-05-17T13:06:23.720Z,4.23
2018-05-17T13:08:51.854Z,4.43
2018-05-17T13:11:19.716Z,3.87
2018-05-17T13:13:47.474Z,4.77
2018-05-17T13:16:15.216Z,4.10
2018-05-17T13:18:43.733Z,3.87
2018-05-17T13:21:12.836Z,4.47
2018-05-17T13:23:40.622Z,5.10
2018-05-17T13:26:08.515Z,3.90
2018-05-17T13:28:38.336Z,3.93
2018-05-17T13:31:06.987Z,4.90
2018-05-17T13:33:35.265Z,4.33
2018-05-17T13:36:03.058Z,4.20
2018-05-17T13:38:30.806Z,5.10
2018-05-17T13:40:59.086Z,4.10
2018-05-17T13:43:26.845Z,4.60
2018-05-17T13:45:54.609Z,4.00
2018-05-17T13:48:22.390Z,4.50
2018-05-17T13:50:50.565Z,4.57
2018-05-17T13:53:18.328Z,4.73
2018-05-17T13:55:46.086Z,5.10
2018-05-17T13:58:13.846Z,3.70
2018-05-17T14:00:41.597Z,4.40
2018-05-17T14:03:09.353Z,4.93
2018-05-17T14:05:37.097Z,4.10
2018-05-17T14:08:04.954Z,4.10
2018-05-17T14:10:32.711Z,4.30
2018-05-17T14:13:00.457Z,4.80
2018-05-17T14:15:29.049Z,3.97
2018-05-17T14:17:56.777Z,4.57
2018-05-17T14:20:24.553Z,4.10
2018-05-17T14:22:52.341Z,4.40
2018-05-17T14:25:20.097Z,4.63
2018-05-17T14:27:48.668Z,5.83
2018-05-17T14:30:16.416Z,3.80
2018-05-17T14:32:44.225Z,3.37
2018-05-17T14:35:11.995Z,3.83
2018-05-17T14:37:39.750Z,3.30
2018-05-17T14:40:07.509Z,3.90
2018-05-17T14:42:36.020Z,3.80
2018-05-17T14:45:03.798Z,4.07
2018-05-17T14:47:31.549Z,3.80
2018-05-17T14:49:59.480Z,3.60
2018-05-17T14:52:28.125Z,3.77
2018-05-17T14:54:55.884Z,3.97
2018-05-17T14:57:23.641Z,3.40
2018-05-17T14:59:51.974Z,4.17
2018-05-17T15:02:20.707Z,3.57
2018-05-17T15:04:48.477Z,3.37
2018-05-17T15:07:16.300Z,3.07
2018-05-17T15:09:44.926Z,3.47
2018-05-17T15:12:12.793Z,3.50
2018-05-17T15:14:41.406Z,3.27
2018-05-17T15:17:09.157Z,3.50
2018-05-17T15:19:37.777Z,3.13
2018-05-17T15:22:07.676Z,3.77
2018-05-17T15:24:36.900Z,2.70
2018-05-17T15:27:04.926Z,3.17
2018-05-17T15:29:32.754Z,2.77
2018-05-17T15:32:01.705Z,3.63
2018-05-17T15:34:30.787Z,3.00
2018-05-17T15:36:58.534Z,3.17
2018-05-17T15:39:26.283Z,3.57
2018-05-17T15:41:54.032Z,2.60
2018-05-17T15:44:21.786Z,2.70
2018-05-17T15:46:49.547Z,3.37
2018-05-17T15:49:17.316Z,3.17
2018-05-17T15:51:45.068Z,2.83
2018-05-17T15:54:12.816Z,2.57
2018-05-17T15:56:41.339Z,3.40
2018-05-17T15:59:09.109Z,3.70
2018-05-17T16:01:36.870Z,3.50
2018-05-17T16:04:04.632Z,3.57
2018-05-17T16:06:32.390Z,4.07
2018-05-17T16:09:00.132Z,3.20
2018-05-17T16:11:27.888Z,4.27
2018-05-17T16:13:56.403Z,4.53
2018-05-17T16:16:24.156Z,3.47
2018-05-17T16:18:51.978Z,4.27
2018-05-17T16:21:19.844Z,4.10
2018-05-17T16:23:47.784Z,3.70
2018-05-17T16:26:15.536Z,4.50
2018-05-17T16:28:43.294Z,4.63
2018-05-17T16:31:11.042Z,4.33
2018-05-17T16:33:38.789Z,4.70
2018-05-17T16:36:07.308Z,4.83
2018-05-17T16:38:35.188Z,5.20
2018-05-17T16:41:02.937Z,4.80
2018-05-17T16:43:30.819Z,6.43
2018-05-17T16:45:58.685Z,6.00
2018-05-17T16:48:26.570Z,5.73
2018-05-17T16:50:55.343Z,6.10
2018-05-17T16:53:23.181Z,6.30
2018-05-17T16:55:51.073Z,5.77
2018-05-17T16:58:18.869Z,5.70
2018-05-17T17:00:46.908Z,5.30
2018-05-17T17:03:14.702Z,4.63
2018-05-17T17:05:44.075Z,5.37
2018-05-17T17:08:11.873Z,5.37
2018-05-17T17:10:39.809Z,5.33
2018-05-17T17:13:07.675Z,5.20
2018-05-17T17:15:35.545Z,5.50
2018-05-17T17:18:03.301Z,5.37
2018-05-17T17:20:31.061Z,7.53
2018-05-17T17:22:59.861Z,6.07
2018-05-17T17:25:28.980Z,7.07
2018-05-17T17:27:57.297Z,6.13
2018-05-17T17:30:25.750Z,5.97
2018-05-17T17:32:54.181Z,7.47
2018-05-17T17:35:23.114Z,6.40
2018-05-17T17:37:51.820Z,6.50
2018-05-17T17:40:20.161Z,10.40
2018-05-17T17:42:48.717Z,9.97
2018-05-17T17:45:16.468Z,7.10
2018-05-17T17:47:44.221Z,6.87
2018-05-17T17:50:11.976Z,6.70
2018-05-17T17:52:39.724Z,5.30
2018-05-17T17:55:08.245Z,6.97
2018-05-17T17:57:35.996Z,7.20
2018-05-17T18:00:03.840Z,7.90
2018-05-17T18:02:32.396Z,7.67
2018-05-17T18:05:00.183Z,7.53
2018-05-17T18:07:28.724Z,7.80
2018-05-17T18:09:56.481Z,7.70
2018-05-17T18:12:24.237Z,7.23
2018-05-17T18:14:52.268Z,7.93
2018-05-17T18:17:20.093Z,7.70
2018-05-17T18:19:47.854Z,8.37
2018-05-17T18:22:16.525Z,7.17
2018-05-17T18:24:44.287Z,5.40
2018-05-17T18:27:12.172Z,6.50
2018-05-17T18:29:40.089Z,7.30
2018-05-17T18:32:08.615Z,7.00
2018-05-17T18:34:36.368Z,7.00
2018-05-17T18:37:04.125Z,7.90
2018-05-17T18:39:31.880Z,8.80
2018-05-17T18:41:59.633Z,8.33
2018-05-17T18:44:27.380Z,8.20
2018-05-17T18:46:55.905Z,8.50
2018-05-17T18:49:23.669Z,8.10
2018-05-17T18:51:51.480Z,7.47
2018-05-17T18:54:19.253Z,7.97
2018-05-17T18:56:47.803Z,6.73
2018-05-17T18:59:15.593Z,6.63
2018-05-17T19:01:43.445Z,7.93
2018-05-17T19:04:11.151Z,7.00
2018-05-17T19:06:38.925Z,8.07
2018-05-17T19:09:06.824Z,7.93
2018-05-17T19:11:34.619Z,9.07
2018-05-17T19:14:03.820Z,9.20
2018-05-17T19:16:32.347Z,6.60
2018-05-17T19:19:00.115Z,8.20
2018-05-17T19:21:27.871Z,7.40
2018-05-17T19:23:55.625Z,9.17
2018-05-17T19:26:23.395Z,7.30
2018-05-17T19:28:51.314Z,8.10
2018-05-17T19:31:19.184Z,7.30
2018-05-17T19:33:46.923Z,7.57
2018-05-17T19:36:14.897Z,8.40
2018-05-17T19:38:42.759Z,8.60
2018-05-17T19:41:10.510Z,7.00
2018-05-17T19:43:38.260Z,8.30
2018-05-17T19:46:06.153Z,8.10
2018-05-17T19:48:33.949Z,6.70
2018-05-17T19:51:02.489Z,6.10
2018-05-17T19:53:30.367Z,7.03
2018-05-17T19:55:58.234Z,5.83
2018-05-17T19:58:26.101Z,6.73
2018-05-17T20:00:53.967Z,6.70
2018-05-17T20:03:21.741Z,6.30
2018-05-17T20:05:49.491Z,7.27
2018-05-17T20:08:17.253Z,6.00
2018-05-17T20:10:45.236Z,5.70
2018-05-17T20:13:13.014Z,5.53
2018-05-17T20:15:40.779Z,5.80
2018-05-17T20:18:08.529Z,5.77
2018-05-17T20:20:36.285Z,6.47
2018-05-17T20:23:04.054Z,6.10
2018-05-17T20:25:31.821Z,5.77
2018-05-17T20:27:59.589Z,5.37
2018-05-17T20:30:27.369Z,6.57
2018-05-17T20:32:55.136Z,5.10
2018-05-17T20:35:22.891Z,6.97
2018-05-17T20:37:50.656Z,5.17
2018-05-17T20:40:18.405Z,5.53
2018-05-17T20:42:46.165Z,6.10
2018-05-17T20:45:13.919Z,5.60
2018-05-17T20:47:42.510Z,6.20
2018-05-17T20:50:11.861Z,5.90
2018-05-17T20:52:40.400Z,5.60
2018-05-17T20:55:08.229Z,6.03
2018-05-17T20:57:36.345Z,5.50
2018-05-17T21:00:04.210Z,6.60
2018-05-17T21:02:31.972Z,4.97
2018-05-17T21:05:00.083Z,5.10
2018-05-17T21:07:28.597Z,5.43
2018-05-17T21:09:56.361Z,5.50
2018-05-17T21:12:24.312Z,4.90
2018-05-17T21:14:52.687Z,6.53
2018-05-17T21:17:20.592Z,5.13
2018-05-17T21:19:49.178Z,5.90
2018-05-17T21:22:17.386Z,5.00
2018-05-17T21:24:46.694Z,5.30
2018-05-17T21:27:15.286Z,4.50
2018-05-17T21:29:43.529Z,4.80
2018-05-17T21:32:11.965Z,5.20
2018-05-17T21:34:40.053Z,6.53
2018-05-17T21:37:07.801Z,5.83
2018-05-17T21:39:35.966Z,5.00
2018-05-17T21:42:03.831Z,7.37
2018-05-17T21:44:32.476Z,6.67
2018-05-17T21:47:00.244Z,5.07
2018-05-17T21:49:28.196Z,6.97
2018-05-17T21:51:56.908Z,5.57
2018-05-17T21:54:25.437Z,7.00
2018-05-17T21:56:53.689Z,7.07
2018-05-17T21:59:22.262Z,7.50
2018-05-17T22:01:50.836Z,6.73
2018-05-17T22:04:19.561Z,8.10
2018-05-17T22:06:49.430Z,8.53
2018-05-17T22:09:17.953Z,7.60
2018-05-17T22:11:45.719Z,6.50
2018-05-17T22:14:13.502Z,6.40
2018-05-17T22:16:41.280Z,6.87
2018-05-17T22:19:09.200Z,7.10
2018-05-17T22:21:37.042Z,6.47
2018-05-17T22:24:05.578Z,5.90
2018-05-17T22:26:33.558Z,8.10
2018-05-17T22:29:01.376Z,7.83
2018-05-17T22:31:29.140Z,7.30
2018-05-17T22:33:56.893Z,6.83
2018-05-17T22:36:25.414Z,8.63
2018-05-17T22:38:53.168Z,7.43
2018-05-17T22:41:20.974Z,6.37
2018-05-17T22:43:48.741Z,8.97
2018-05-17T22:46:16.533Z,7.83
2018-05-17T22:48:45.076Z,7.50
2018-05-17T22:51:12.836Z,6.80
2018-05-17T22:53:40.847Z,8.80
2018-05-17T22:56:09.452Z,7.57
2018-05-17T22:58:37.266Z,7.80
2018-05-17T23:01:05.064Z,8.07
2018-05-17T23:03:33.808Z,8.50
2018-05-17T23:06:01.674Z,8.70
2018-05-17T23:08:29.542Z,7.53
2018-05-17T23:10:57.601Z,8.47
2018-05-17T23:13:25.479Z,7.97
2018-05-17T23:15:53.273Z,9.07
2018-05-17T23:18:21.521Z,10.40
2018-05-17T23:20:49.387Z,8.23
2018-05-17T23:23:17.253Z,8.07
2018-05-17T23:25:45.323Z,8.50
2018-05-17T23:28:13.293Z,8.00
2018-05-17T23:30:41.088Z,9.90
2018-05-17T23:33:09.026Z,10.27
2018-05-17T23:35:36.893Z,9.80
2018-05-17T23:38:04.966Z,10.30
2018-05-17T23:43:34.387Z,10.17
2018-05-17T23:46:02.360Z,10.37
2018-05-17T23:48:30.223Z,10.60
2018-05-17T23:50:58.091Z,11.37
2018-05-17T23:53:25.959Z,12.17
2018-05-17T23:55:53.823Z,11.00
2018-05-17T23:58:21.792Z,11.83
